Time;durP1;ratioP1;P1;durP2;ratioP2;P2;SDS_P1;SDS_P2;PMS_P1;PMS_P2;Temp;Humidity;BMP_temperature;BMP_pressure;BME280_temperature;BME280_humidity;BME280_pressure;Samples;Min_cycle;Max_cycle;Signal;HPM_P1;HPM_P2
2021/12/03 00:00:47;;;;;;;7.32;1.88;;;;;;;-142.75;100.00;78027.22;4986847;28;20027;-65
2021/12/03 00:03:12;;;;;;;9.40;2.33;;;;;;;-142.75;100.00;78035.09;4986414;28;20033;-65
2021/12/03 00:05:38;;;;;;;8.32;2.03;;;;;;;-142.75;100.00;78031.16;4987346;28;20038;-65
2021/12/03 00:08:05;;;;;;;4.95;1.90;;;;;;;-142.75;100.00;78041.00;4987679;28;20403;-66
2021/12/03 00:10:30;;;;;;;;;;;;;;;-142.75;100.00;78046.91;4986496;28;20032;-65
2021/12/03 00:12:57;;;;;;;8.53;1.50;;;;;;;-142.75;100.00;78064.66;4987007;28;19939;-66
2021/12/03 00:15:25;;;;;;;4.27;1.57;;;;;;;-142.75;100.00;78060.72;4987167;28;20026;-65
2021/12/03 00:17:51;;;;;;;3.40;1.40;;;;;;;-142.75;100.00;78062.69;4987605;28;20026;-66
2021/12/03 00:20:17;;;;;;;5.97;1.00;;;;;;;-142.75;100.00;78062.69;4986877;28;20442;-66
2021/12/03 00:22:44;;;;;;;;;;;;;;;-142.75;100.00;78058.72;4987724;28;20153;-66
2021/12/03 00:25:09;;;;;;;5.30;1.20;;;;;;;-142.75;100.00;78068.59;4987184;28;19914;-66
2021/12/03 00:27:35;;;;;;;5.22;0.90;;;;;;;-142.75;100.00;78066.63;4987593;28;20557;-65
2021/12/03 00:30:00;;;;;;;3.83;1.30;;;;;;;-142.75;100.00;78066.63;4986696;28;20555;-65
2021/12/03 00:32:25;;;;;;;4.60;0.93;;;;;;;-142.75;100.00;78060.72;4987152;28;20033;-65
2021/12/03 00:34:51;;;;;;;2.85;0.75;;;;;;;-142.75;100.00;78058.72;4987409;28;20117;-66
2021/12/03 00:37:16;;;;;;;7.00;1.00;;;;;;;-142.75;100.00;78054.81;4987324;28;20032;-66
2021/12/03 00:39:41;;;;;;;9.10;1.08;;;;;;;-142.75;100.00;78064.66;4985328;28;20030;-65
2021/12/03 00:42:08;;;;;;;2.83;0.65;;;;;;;-142.75;100.00;78066.63;4986945;28;20391;-65
2021/12/03 00:44:33;;;;;;;;;;;;;;;-142.75;100.00;78062.69;4987141;28;20113;-65
2021/12/03 00:46:59;;;;;;;7.63;0.80;;;;;;;-142.75;100.00;78058.72;4986947;28;19992;-65
2021/12/03 00:49:25;;;;;;;2.47;0.95;;;;;;;-142.75;100.00;78058.72;4987015;28;20026;-65
2021/12/03 00:51:51;;;;;;;5.37;0.80;;;;;;;-142.75;100.00;78062.69;4986452;28;20522;-66
2021/12/03 00:54:16;;;;;;;6.88;1.15;;;;;;;-142.75;100.00;78060.72;4987168;28;20045;-66
2021/12/03 00:56:42;;;;;;;3.92;1.00;;;;;;;-142.75;100.00;78056.78;4986529;28;20482;-65
2021/12/03 00:59:08;;;;;;;5.22;0.82;;;;;;;-142.75;100.00;78046.91;4987411;28;20568;-65
2021/12/03 01:01:34;;;;;;;2.47;0.63;;;;;;;-142.75;100.00;78042.97;4986066;28;20030;-65
2021/12/03 01:03:59;;;;;;;;;;;;;;;-142.75;100.00;78042.97;4987047;28;20080;-65
2021/12/03 01:06:25;;;;;;;6.03;1.07;;;;;;;-142.75;100.00;78031.16;4986731;28;19914;-65
2021/12/03 01:08:50;;;;;;;3.67;0.80;;;;;;;-142.75;100.00;78031.16;4986768;28;20038;-65
2021/12/03 01:11:16;;;;;;;6.60;0.95;;;;;;;-142.75;100.00;78025.25;4985693;28;20030;-65
2021/12/03 01:13:43;;;;;;;3.65;0.98;;;;;;;-142.75;100.00;78023.28;4986639;28;20034;-65
2021/12/03 01:16:10;;;;;;;6.17;1.10;;;;;;;-142.75;100.00;78019.34;5042393;23;20064;-69
2021/12/03 01:18:36;;;;;;;6.83;1.13;;;;;;;-142.75;100.00;78021.31;5030616;28;20092;-71
2021/12/03 01:21:02;;;;;;;5.95;1.20;;;;;;;-142.75;100.00;78025.25;5047802;28;20755;-69
2021/12/03 01:23:28;;;;;;;5.30;1.03;;;;;;;-142.75;100.00;78035.09;5049070;28;20467;-69
2021/12/03 01:25:53;;;;;;;4.75;0.80;;;;;;;-142.75;100.00;78027.22;5048556;28;20089;-67
2021/12/03 01:28:18;;;;;;;5.88;1.45;;;;;;;-142.75;100.00;78031.16;5055895;28;20394;-68
2021/12/03 01:30:44;;;;;;;2.80;0.85;;;;;;;-142.75;100.00;78027.22;5053806;28;20027;-69
2021/12/03 01:33:09;;;;;;;6.38;1.10;;;;;;;-142.75;100.00;78015.41;5036868;28;20120;-69
2021/12/03 01:35:37;;;;;;;4.80;0.93;;;;;;;-142.75;100.00;78021.31;5036952;28;20120;-70
2021/12/03 01:38:04;;;;;;;4.20;1.10;;;;;;;-142.75;100.00;78023.28;5054777;28;20036;-69
2021/12/03 01:40:30;;;;;;;4.43;1.10;;;;;;;-142.75;100.00;78029.19;5054011;28;20029;-69
2021/12/03 01:42:57;;;;;;;4.37;1.13;;;;;;;-142.75;100.00;78031.16;5054698;28;20086;-69
2021/12/03 01:45:26;;;;;;;4.67;0.80;;;;;;;-142.75;100.00;78025.25;5055372;28;20445;-72
2021/12/03 01:47:52;;;;;;;8.20;0.97;;;;;;;-142.75;100.00;78025.25;5055174;28;20025;-73
2021/12/03 01:50:18;;;;;;;;;;;;;;;-142.75;100.00;78027.22;5054930;28;20021;-70
2021/12/03 01:52:44;;;;;;;5.27;1.00;;;;;;;-142.75;100.00;78023.28;5054662;28;20578;-69
2021/12/03 01:55:12;;;;;;;6.90;1.40;;;;;;;-142.75;100.00;78015.41;5054713;28;20139;-69
2021/12/03 01:57:38;;;;;;;8.63;1.10;;;;;;;-142.75;100.00;78011.47;5037262;28;20020;-69
2021/12/03 02:00:07;;;;;;;4.90;0.80;;;;;;;-142.75;100.00;78007.53;5036314;28;20039;-71
2021/12/03 02:02:33;;;;;;;12.30;1.37;;;;;;;-142.75;100.00;78003.59;5054762;28;20025;-69
2021/12/03 02:04:58;;;;;;;5.78;1.27;;;;;;;-142.75;100.00;77991.78;5036734;28;20021;-69
2021/12/03 02:07:23;;;;;;;3.70;0.93;;;;;;;-142.75;100.00;77985.88;5036621;28;20020;-67
2021/12/03 02:09:49;;;;;;;3.53;0.60;;;;;;;-142.75;100.00;77991.78;5036403;28;20059;-71
2021/12/03 02:12:14;;;;;;;4.93;1.25;;;;;;;-142.75;100.00;77983.91;5054934;28;20358;-69
2021/12/03 02:14:39;;;;;;;7.97;1.23;;;;;;;-142.75;100.00;77983.91;5036501;28;20040;-69
2021/12/03 02:17:05;;;;;;;4.53;1.00;;;;;;;-142.75;100.00;77985.88;5054845;28;20040;-69
2021/12/03 02:19:31;;;;;;;5.43;1.00;;;;;;;-142.75;100.00;77981.94;5036693;28;20017;-69
2021/12/03 02:21:57;;;;;;;9.57;1.13;;;;;;;-142.75;100.00;77983.91;5053879;28;20036;-69
2021/12/03 02:24:22;;;;;;;2.20;0.93;;;;;;;-142.75;100.00;77995.72;5036998;28;20397;-73
2021/12/03 02:26:49;;;;;;;10.13;2.03;;;;;;;-142.75;100.00;77991.78;5054879;28;20402;-68
2021/12/03 02:29:15;;;;;;;3.90;1.00;;;;;;;-142.75;100.00;77999.66;5055067;28;20065;-69
2021/12/03 02:31:41;;;;;;;5.20;0.73;;;;;;;-142.75;100.00;77995.72;5053622;28;20478;-69
2021/12/03 02:34:06;;;;;;;3.47;0.80;;;;;;;-142.75;100.00;77993.75;5052208;28;20025;-69
2021/12/03 02:36:31;;;;;;;11.07;1.17;;;;;;;-142.75;100.00;77991.78;5033175;28;20589;-69
2021/12/03 02:38:57;;;;;;;2.90;1.00;;;;;;;-142.75;100.00;77993.75;5051225;28;20378;-69
2021/12/03 02:41:23;;;;;;;5.57;1.00;;;;;;;-142.75;100.00;78005.56;5050145;28;20531;-71
2021/12/03 02:43:48;;;;;;;4.82;0.80;;;;;;;-142.75;100.00;77995.72;5050890;28;20028;-69
2021/12/03 02:46:13;;;;;;;5.85;0.75;;;;;;;-142.75;100.00;77978.00;5050335;28;20031;-71
2021/12/03 02:48:39;;;;;;;6.18;0.90;;;;;;;-142.75;100.00;77974.06;5050600;28;20028;-69
2021/12/03 02:51:06;;;;;;;4.78;1.10;;;;;;;-142.75;100.00;77976.03;5049820;28;20108;-69
2021/12/03 02:53:33;;;;;;;7.93;1.33;;;;;;;-142.75;100.00;77979.97;5032707;28;20037;-69
2021/12/03 02:55:58;;;;;;;4.13;0.90;;;;;;;-142.75;100.00;77972.09;5050374;28;20048;-69
2021/12/03 02:58:23;;;;;;;6.45;1.00;;;;;;;-142.75;100.00;77978.00;5050866;28;20475;-66
2021/12/03 03:00:51;;;;;;;3.73;0.57;;;;;;;-142.75;100.00;77968.16;5049980;28;20020;-68
2021/12/03 03:03:16;;;;;;;5.50;0.80;;;;;;;-142.75;100.00;77974.06;5032844;28;20268;-68
2021/12/03 03:05:51;;;;;;;5.15;0.73;;;;;;;-142.75;100.00;77970.13;5050373;28;20378;-68
2021/12/03 03:08:16;;;;;;;2.80;0.60;;;;;;;-142.75;100.00;77952.41;5032961;28;20384;-69
2021/12/03 03:10:42;;;;;;;6.38;1.40;;;;;;;-142.75;100.00;77938.63;5049534;28;20036;-69
2021/12/03 03:13:08;;;;;;;5.22;1.25;;;;;;;-142.75;100.00;77942.56;5050213;28;20039;-69
2021/12/03 03:15:33;;;;;;;8.65;1.48;;;;;;;-142.75;100.00;77940.59;5049865;28;20033;-68
2021/12/03 03:18:11;;;;;;;7.78;1.08;;;;;;;-142.75;100.00;77932.72;5049971;28;20017;-69
2021/12/03 03:20:39;;;;;;;6.60;1.50;;;;;;;-142.75;100.00;77936.66;5031540;28;20381;-68
2021/12/03 03:23:05;;;;;;;5.87;1.53;;;;;;;-142.75;100.00;77936.66;5032096;28;20024;-69
2021/12/03 03:25:30;;;;;;;4.15;0.80;;;;;;;-142.75;100.00;77946.50;5049854;28;20031;-69
2021/12/03 03:27:56;;;;;;;1.85;0.63;;;;;;;-142.75;100.00;77948.47;5032346;28;20490;-69
2021/12/03 03:30:21;;;;;;;3.60;1.05;;;;;;;-142.75;100.00;77928.78;5031849;28;20049;-68
2021/12/03 03:32:48;;;;;;;2.90;0.70;;;;;;;-142.75;100.00;77940.59;5031861;28;20074;-69
2021/12/03 03:35:13;;;;;;;3.87;0.70;;;;;;;-142.75;100.00;77926.81;5049759;28;20561;-68
2021/12/03 03:37:40;;;;;;;6.47;0.82;;;;;;;-142.75;100.00;77920.91;5049858;28;20137;-69
2021/12/03 03:40:08;;;;;;;2.30;0.70;;;;;;;-142.75;100.00;77903.16;5048889;28;20032;-69
2021/12/03 03:42:33;;;;;;;3.43;0.70;;;;;;;-142.75;100.00;77897.25;5031386;28;20024;-70
2021/12/03 03:44:59;;;;;;;3.55;0.90;;;;;;;-142.75;100.00;77897.25;5049362;28;20704;-69
2021/12/03 03:47:24;;;;;;;3.53;0.75;;;;;;;-142.75;100.00;77889.38;5031457;28;20406;-68
2021/12/03 03:49:49;;;;;;;2.00;0.80;;;;;;;-142.75;100.00;77891.34;5048985;28;20044;-70
2021/12/03 03:52:15;;;;;;;3.17;0.82;;;;;;;-142.75;100.00;77901.19;5049333;28;20029;-68
2021/12/03 03:54:40;;;;;;;7.05;1.35;;;;;;;-142.75;100.00;77879.53;5049292;28;20025;-69
2021/12/03 03:57:06;;;;;;;6.80;1.05;;;;;;;-142.75;100.00;77877.56;5049285;28;20410;-69
2021/12/03 03:59:31;;;;;;;3.85;0.68;;;;;;;-142.75;100.00;77887.41;5048196;28;20111;-69
2021/12/03 04:01:57;;;;;;;5.82;1.20;;;;;;;-142.75;100.00;77889.38;5048276;28;20064;-68
2021/12/03 04:04:22;;;;;;;6.25;1.15;;;;;;;-142.75;100.00;77891.34;5048969;28;20016;-71
2021/12/03 04:06:50;;;;;;;6.97;0.63;;;;;;;-142.75;100.00;77881.50;5049237;28;20020;-68
2021/12/03 04:09:15;;;;;;;9.30;1.00;;;;;;;-142.75;100.00;77873.63;5031218;28;20078;-70
2021/12/03 04:11:40;;;;;;;4.32;1.10;;;;;;;-142.75;100.00;77865.75;5048574;28;20033;-68
2021/12/03 04:14:05;;;;;;;6.13;1.02;;;;;;;-142.75;100.00;77853.94;5049854;28;20033;-69
2021/12/03 04:16:31;;;;;;;5.30;1.33;;;;;;;-142.75;100.00;77846.06;5031305;28;20028;-68
2021/12/03 04:18:57;;;;;;;4.05;1.13;;;;;;;-142.75;100.00;77834.25;5031837;28;20021;-68
2021/12/03 04:21:23;;;;;;;;;;;;;;;-142.75;100.00;77842.13;5031162;28;20063;-68
2021/12/03 04:23:49;;;;;;;10.03;2.50;;;;;;;-142.75;100.00;77836.22;5049724;28;20327;-69
2021/12/03 04:26:14;;;;;;;8.48;1.20;;;;;;;-142.75;100.00;77834.25;5049381;28;20039;-71
2021/12/03 04:28:40;;;;;;;6.15;1.02;;;;;;;-142.75;100.00;77848.03;5050018;28;20028;-68
2021/12/03 04:31:06;;;;;;;9.27;1.13;;;;;;;-142.75;100.00;77840.16;5048568;28;20025;-69
2021/12/03 04:33:31;;;;;;;4.88;0.98;;;;;;;-142.75;100.00;77832.28;5048964;28;20025;-69
2021/12/03 04:35:57;;;;;;;9.38;1.58;;;;;;;-142.75;100.00;77828.34;5049074;28;20060;-68
2021/12/03 04:38:22;;;;;;;8.38;1.55;;;;;;;-142.75;100.00;77842.13;5049417;28;20497;-72
2021/12/03 04:40:48;;;;;;;8.77;1.40;;;;;;;-142.75;100.00;77842.13;5048495;28;20473;-70
2021/12/03 04:43:13;;;;;;;7.75;1.60;;;;;;;-142.75;100.00;77834.25;5048920;28;20079;-68
2021/12/03 04:45:39;;;;;;;6.43;1.88;;;;;;;-142.75;100.00;77836.22;5049009;28;20024;-68
2021/12/03 04:48:06;;;;;;;4.00;1.60;;;;;;;-142.75;100.00;77832.28;5048937;28;20449;-69
2021/12/03 04:50:35;;;;;;;10.93;2.27;;;;;;;-142.75;100.00;77822.44;5049069;28;20104;-69
2021/12/03 04:53:01;;;;;;;11.43;2.50;;;;;;;-142.75;100.00;77814.56;5049488;28;20106;-69
2021/12/03 04:55:27;;;;;;;9.75;2.10;;;;;;;-142.75;100.00;77822.44;5049557;28;20024;-69
2021/12/03 04:57:55;;;;;;;10.27;2.65;;;;;;;-142.75;100.00;77830.31;5049170;28;20025;-68
2021/12/03 05:00:26;;;;;;;7.43;2.83;;;;;;;-142.75;100.00;77816.53;5049911;28;20043;-69
2021/12/03 05:02:53;;;;;;;12.83;3.87;;;;;;;-142.75;100.00;77818.50;5050191;28;20059;-68
2021/12/03 05:05:19;;;;;;;12.93;3.70;;;;;;;-142.75;100.00;77810.63;5050329;28;20051;-68
2021/12/03 05:08:02;;;;;;;13.23;4.85;;;;;;;-142.75;100.00;77818.50;5032252;28;20048;-69
2021/12/03 05:10:29;;;;;;;24.27;4.90;;;;;;;-142.75;100.00;77814.56;5030243;28;20021;-68
2021/12/03 05:13:01;;;;;;;17.50;4.63;;;;;;;-142.75;100.00;77812.59;5048856;28;20032;-68
2021/12/03 05:15:27;;;;;;;14.97;4.37;;;;;;;-142.75;100.00;77808.66;5048527;28;20032;-69
2021/12/03 05:17:53;;;;;;;26.50;4.60;;;;;;;-142.75;100.00;77812.59;5048979;28;20422;-68
2021/12/03 05:20:19;;;;;;;15.75;4.53;;;;;;;-142.75;100.00;77810.63;5048657;28;20030;-68
2021/12/03 05:22:44;;;;;;;15.55;4.80;;;;;;;-142.75;100.00;77812.59;5049212;28;20094;-69
2021/12/03 05:25:10;;;;;;;11.65;4.15;;;;;;;-142.75;100.00;77818.50;5030881;28;20029;-68
2021/12/03 05:27:35;;;;;;;14.23;4.10;;;;;;;-142.75;100.00;77810.63;5049327;28;20021;-68
2021/12/03 05:30:02;;;;;;;19.92;5.55;;;;;;;-142.75;100.00;77820.47;5031570;28;20521;-69
2021/12/03 05:32:27;;;;;;;13.07;4.03;;;;;;;-142.75;100.00;77810.63;5049526;28;20116;-69
2021/12/03 05:34:53;;;;;;;14.77;4.25;;;;;;;-142.75;100.00;77822.44;5048535;28;20453;-68
2021/12/03 05:37:18;;;;;;;19.88;5.07;;;;;;;-142.75;100.00;77822.44;5048765;28;20024;-68
2021/12/03 05:39:43;;;;;;;16.47;4.30;;;;;;;-142.75;100.00;77814.56;5029818;28;20033;-68
2021/12/03 05:42:09;;;;;;;18.93;4.10;;;;;;;-142.75;100.00;77822.44;5048022;28;20271;-68
2021/12/03 05:44:35;;;;;;;19.33;4.28;;;;;;;-142.75;100.00;77812.59;5050588;28;20025;-70
2021/12/03 05:47:00;;;;;;;15.63;3.85;;;;;;;-142.75;100.00;77814.56;5049858;28;20092;-70
2021/12/03 05:49:27;;;;;;;14.77;4.53;;;;;;;-142.75;100.00;77808.66;5050168;28;20049;-69
2021/12/03 05:51:52;;;;;;;15.43;3.73;;;;;;;-142.75;100.00;77816.53;5048407;28;20102;-68
2021/12/03 05:54:19;;;;;;;20.00;4.03;;;;;;;-142.75;100.00;77806.69;5049700;28;20025;-68
2021/12/03 05:56:44;;;;;;;18.57;4.13;;;;;;;-142.75;100.00;77806.69;5048326;28;20059;-68
2021/12/03 05:59:09;;;;;;;11.77;3.95;;;;;;;-142.75;100.00;77798.81;5048936;28;20032;-69
2021/12/03 06:01:34;;;;;;;14.93;4.60;;;;;;;-142.75;100.00;77798.81;5047576;28;20469;-68
2021/12/03 06:04:00;;;;;;;14.68;4.22;;;;;;;-142.75;100.00;77800.78;5048162;28;20021;-69
2021/12/03 06:06:25;;;;;;;14.00;4.85;;;;;;;-142.75;100.00;77790.94;5048193;28;20047;-67
2021/12/03 06:08:51;;;;;;;13.13;4.13;;;;;;;-142.75;100.00;77800.78;5048472;28;20045;-68
2021/12/03 06:11:16;;;;;;;19.80;4.90;;;;;;;-142.75;100.00;77814.56;5051953;28;20082;-69
2021/12/03 06:13:42;;;;;;;14.23;4.32;;;;;;;-142.75;100.00;77806.69;5035297;28;20133;-69
2021/12/03 06:16:09;;;;;;;13.77;3.75;;;;;;;-142.75;100.00;77808.66;5052577;28;20486;-69
2021/12/03 06:18:35;;;;;;;14.70;4.30;;;;;;;-142.75;100.00;77806.69;5052393;28;20037;-70
2021/12/03 06:21:03;;;;;;;12.68;3.72;;;;;;;-142.75;100.00;77812.59;5051193;28;20045;-69
2021/12/03 06:23:29;;;;;;;12.93;4.17;;;;;;;-142.75;100.00;77810.63;5035329;28;20545;-69
2021/12/03 06:25:55;;;;;;;12.55;4.50;;;;;;;-142.75;100.00;77810.63;5034456;28;20028;-68
2021/12/03 06:28:20;;;;;;;15.40;4.05;;;;;;;-142.75;100.00;77808.66;5054289;28;20033;-68
2021/12/03 06:30:45;;;;;;;14.05;3.85;;;;;;;-142.75;100.00;77800.78;5052623;28;20066;-69
2021/12/03 06:33:11;;;;;;;16.20;3.97;;;;;;;-142.75;100.00;77792.91;5052060;28;20021;-69
2021/12/03 06:35:36;;;;;;;10.55;3.13;;;;;;;-142.75;100.00;77804.72;5052748;28;20027;-69
2021/12/03 06:38:01;;;;;;;18.58;4.57;;;;;;;-142.75;100.00;77806.69;5052942;28;20037;-69
2021/12/03 06:40:27;;;;;;;16.27;4.78;;;;;;;-142.75;100.00;77796.84;5052011;28;20025;-69
2021/12/03 06:42:53;;;;;;;12.27;3.85;;;;;;;-142.75;100.00;77808.66;5052343;28;20033;-68
2021/12/03 06:45:19;;;;;;;12.65;4.15;;;;;;;-142.75;100.00;77804.72;5052249;28;20111;-69
2021/12/03 06:47:45;;;;;;;13.88;3.58;;;;;;;-142.75;100.00;77812.59;5033626;28;20029;-69
2021/12/03 06:50:16;;;;;;;11.45;3.92;;;;;;;-142.75;100.00;77802.75;5050868;28;20071;-69
2021/12/03 06:52:44;;;;;;;17.30;3.97;;;;;;;-142.75;100.00;77806.69;5051746;28;20029;-69
2021/12/03 06:55:14;;;;;;;24.30;4.27;;;;;;;-142.75;100.00;77808.66;5034189;28;20086;-67
2021/12/03 06:57:41;;;;;;;12.23;3.87;;;;;;;-142.75;100.00;77802.75;5033850;28;20036;-67
2021/12/03 07:00:07;;;;;;;13.97;4.03;;;;;;;-142.75;100.00;77808.66;5051669;28;20090;-67
2021/12/03 07:02:33;;;;;;;15.77;3.50;;;;;;;-142.75;100.00;77824.41;5050853;28;20069;-67
2021/12/03 07:04:58;;;;;;;13.70;3.65;;;;;;;-142.75;100.00;77814.56;5050880;28;20117;-67
2021/12/03 07:07:23;;;;;;;16.77;3.65;;;;;;;-142.75;100.00;77826.38;5051738;28;20060;-66
2021/12/03 07:09:49;;;;;;;17.53;4.30;;;;;;;-142.75;100.00;77846.06;5033689;28;20102;-67
2021/12/03 07:12:15;;;;;;;15.18;3.33;;;;;;;-142.75;100.00;77853.94;5033278;28;20392;-69
2021/12/03 07:17:20;;;;;;;14.50;3.13;;;;;;;-142.75;100.00;77885.44;5049844;28;20091;-65
2021/12/03 07:19:46;;;;;;;13.02;4.03;;;;;;;-142.75;100.00;77871.66;5049282;28;20025;-64
2021/12/03 07:22:11;;;;;;;12.57;2.87;;;;;;;-142.75;100.00;77873.63;5050456;28;20057;-65
2021/12/03 07:24:36;;;;;;;12.82;3.75;;;;;;;-142.75;100.00;77863.78;5067131;28;20313;-64
2021/12/03 07:27:02;;;;;;;11.05;3.78;;;;;;;-142.75;100.00;77863.78;5070704;28;20047;-64
2021/12/03 07:29:28;;;;;;;15.13;3.90;;;;;;;-142.75;100.00;77873.63;5070912;28;20107;-64
2021/12/03 07:31:54;;;;;;;8.93;2.93;;;;;;;-142.75;100.00;77869.69;5068344;28;20086;-64
2021/12/03 07:34:19;;;;;;;16.67;4.03;;;;;;;-142.75;100.00;77863.78;5070684;28;20044;-67
2021/12/03 07:36:45;;;;;;;14.05;3.22;;;;;;;-142.75;100.00;77861.81;5070287;28;20444;-64
2021/12/03 07:39:10;;;;;;;13.88;3.70;;;;;;;-142.75;100.00;77857.88;5068791;28;20032;-64
2021/12/03 07:41:40;;;;;;;9.68;3.22;;;;;;;-142.75;100.00;77863.78;5068278;28;20016;-64
2021/12/03 07:44:05;;;;;;;13.93;3.67;;;;;;;-142.75;100.00;77871.66;5069147;28;20463;-64
2021/12/03 07:46:30;;;;;;;12.45;3.70;;;;;;;-142.75;100.00;77869.69;5069177;28;20025;-64
2021/12/03 07:48:55;;;;;;;17.50;4.27;;;;;;;-142.75;100.00;77875.59;5067986;28;20024;-64
2021/12/03 07:51:21;;;;;;;14.13;3.90;;;;;;;-142.75;100.00;77867.72;5069242;28;20032;-64
2021/12/03 07:53:46;;;;;;;11.50;3.60;;;;;;;-142.75;100.00;77869.69;5068338;28;20050;-64
2021/12/03 07:56:12;;;;;;;21.95;4.65;;;;;;;-142.75;100.00;77869.69;5069453;28;20478;-64
2021/12/03 07:58:37;;;;;;;13.68;4.47;;;;;;;-142.75;100.00;77871.66;5069645;28;20545;-64
2021/12/03 08:01:03;;;;;;;13.13;4.25;;;;;;;-142.75;100.00;77865.75;5068659;28;20035;-63
2021/12/03 08:03:29;;;;;;;15.18;4.68;;;;;;;-142.75;100.00;77869.69;5069462;28;20020;-64
2021/12/03 08:05:54;;;;;;;13.70;4.05;;;;;;;-142.75;100.00;77865.75;5069422;28;20024;-64
2021/12/03 08:08:24;;;;;;;18.65;4.70;;;;;;;-142.75;100.00;77857.88;5069219;28;20470;-64
2021/12/03 08:10:50;;;;;;;11.67;3.87;;;;;;;-142.75;100.00;77867.72;5068707;28;20020;-65
2021/12/03 08:13:16;;;;;;;18.17;4.47;;;;;;;-142.75;100.00;77855.91;5069377;28;20031;-64
2021/12/03 08:15:41;;;;;;;11.32;3.88;;;;;;;-142.75;100.00;77834.25;5068919;28;20028;-64
2021/12/03 08:18:07;;;;;;;13.48;5.00;;;;;;;-142.75;100.00;77840.16;5069042;28;20052;-64
2021/12/03 08:20:33;;;;;;;15.45;3.90;;;;;;;-142.75;100.00;77822.44;5068424;28;20032;-65
2021/12/03 08:22:59;;;;;;;12.68;3.53;;;;;;;-142.75;100.00;77816.53;5067491;28;20026;-65
2021/12/03 08:25:26;;;;;;;15.67;3.63;;;;;;;-142.75;100.00;77806.69;5067619;28;20433;-63
2021/12/03 08:27:52;;;;;;;12.67;3.90;;;;;;;-142.75;100.00;77806.69;5069121;28;20089;-65
2021/12/03 08:30:17;;;;;;;12.80;4.15;;;;;;;-142.75;100.00;77806.69;5067208;28;20513;-64
2021/12/03 08:32:43;;;;;;;15.43;3.70;;;;;;;-142.75;100.00;77800.78;5066650;28;20115;-65
2021/12/03 08:35:08;;;;;;;16.80;4.22;;;;;;;-142.75;100.00;77814.56;5068701;28;20158;-64
2021/12/03 08:37:33;;;;;;;11.68;4.05;;;;;;;-142.75;100.00;77800.78;5067231;28;20107;-64
2021/12/03 08:39:59;;;;;;;15.48;3.67;;;;;;;-142.75;100.00;77788.97;5068070;28;20342;-64
2021/12/03 08:42:24;;;;;;;8.93;3.90;;;;;;;-142.75;100.00;77790.94;5067479;28;20118;-64
2021/12/03 08:44:50;;;;;;;13.88;3.65;;;;;;;-142.75;100.00;77787.00;5067624;28;20031;-64
2021/12/03 08:47:16;;;;;;;20.70;4.25;;;;;;;-142.75;100.00;77759.44;5068577;28;20024;-65
2021/12/03 08:49:49;;;;;;;12.10;3.10;;;;;;;-142.75;100.00;77759.44;5066268;28;20071;-64
2021/12/03 08:54:53;;;;;;;12.13;3.43;;;;;;;-142.75;100.00;77751.56;5068184;28;20040;-64
2021/12/03 08:57:39;;;;;;;7.93;2.30;;;;;;;-142.75;100.00;77753.53;5068425;28;20032;-64
2021/12/03 09:00:17;;;;;;;10.23;2.53;;;;;;;-142.75;100.00;77747.63;5067092;28;20024;-64
2021/12/03 09:02:43;;;;;;;9.63;2.80;;;;;;;-142.75;100.00;77743.69;5067599;28;20043;-64
2021/12/03 09:05:08;;;;;;;;;;;;;;;-142.75;100.00;77727.94;5066873;28;20032;-64
2021/12/03 09:07:34;;;;;;;8.67;2.17;;;;;;;-142.75;100.00;77706.25;5067586;28;19923;-64
2021/12/03 09:10:00;;;;;;;;;;;;;;;-142.75;100.00;77706.25;5066315;28;20504;-64
2021/12/03 09:12:25;;;;;;;10.33;3.00;;;;;;;-142.75;100.00;77714.13;5067595;28;19963;-65
2021/12/03 09:14:56;;;;;;;11.18;2.63;;;;;;;-142.75;100.00;77710.19;5067913;28;20024;-64
2021/12/03 09:22:40;;;;;;;11.93;3.57;;;;;;;-142.75;100.00;77714.13;5067706;28;20040;-67
2021/12/03 09:25:09;;;;;;;16.50;3.93;;;;;;;-142.75;100.00;77704.28;5082741;28;20624;-66
2021/12/03 09:27:35;;;;;;;17.53;4.03;;;;;;;-142.75;100.00;77696.41;5087515;28;20508;-67
2021/12/03 09:30:02;;;;;;;18.67;3.72;;;;;;;-142.75;100.00;77696.41;5087032;28;20028;-65
2021/12/03 09:32:31;;;;;;;15.07;4.63;;;;;;;-142.75;100.00;77712.16;5087876;28;20028;-64
2021/12/03 09:34:57;;;;;;;16.97;4.10;;;;;;;-142.75;100.00;77716.09;5078981;28;20020;-65
2021/12/03 09:37:23;;;;;;;19.73;4.33;;;;;;;-142.75;100.00;77723.97;5087568;28;20024;-66
2021/12/03 09:39:48;;;;;;;20.40;4.30;;;;;;;-142.75;100.00;77720.03;5087045;28;20036;-64
2021/12/03 09:42:15;;;;;;;17.77;4.97;;;;;;;-142.75;100.00;77723.97;5087753;28;20020;-64
2021/12/03 09:44:44;;;;;;;17.93;4.93;;;;;;;-142.75;100.00;77743.69;5090880;28;20024;-64
2021/12/03 09:47:09;;;;;;;20.13;5.00;;;;;;;-142.75;100.00;77731.88;5092197;28;20027;-64
2021/12/03 09:49:37;;;;;;;22.80;5.80;;;;;;;-142.75;100.00;77727.94;5091747;28;20070;-64
2021/12/03 09:57:06;;;;;;;18.93;5.23;;;;;;;-142.75;100.00;77733.84;5091304;28;20032;-64
2021/12/03 10:02:26;;;;;;;35.30;13.87;;;;;;;-142.75;100.00;77741.72;5090981;28;20063;-67
2021/12/03 10:10:54;;;;;;;15.43;5.13;;;;;;;-142.75;100.00;77720.03;5090444;28;20043;-64
2021/12/03 10:13:16;;;;;;;17.00;5.10;;;;;;;-142.75;100.00;77729.88;5090621;28;20097;-64
2021/12/03 10:15:59;;;;;;;18.83;6.03;;;;;;;-142.75;100.00;77729.88;5072300;28;20058;-65
2021/12/03 10:19:01;;;;;;;21.37;5.63;;;;;;;-142.75;100.00;77725.97;5071543;28;20028;-65
2021/12/03 10:21:44;;;;;;;21.70;5.93;;;;;;;-142.75;100.00;77714.13;5069722;28;20040;-65
2021/12/03 10:24:40;;;;;;;19.03;5.57;;;;;;;-142.75;100.00;77704.28;5070709;28;20035;-64
2021/12/03 10:27:27;;;;;;;21.40;4.80;;;;;;;-142.75;100.00;77684.59;5070407;28;20081;-64
2021/12/03 10:49:05;;;;;;;15.75;4.90;;;;;;;-142.75;100.00;77633.41;5068789;28;20032;-64
2021/12/03 10:56:52;;;;;;;18.90;4.47;;;;;;;-142.75;100.00;77615.69;5068996;28;20028;-67
2021/12/03 11:05:17;;;;;;;15.30;5.33;;;;;;;-142.75;100.00;77582.22;5071018;28;20083;-66
2021/12/03 11:27:27;;;;;;;21.53;8.97;;;;;;;-142.75;100.00;77505.44;5090384;28;20101;-64
2021/12/03 11:37:51;;;;;;;15.63;3.80;;;;;;;-142.75;100.00;77507.41;5069915;28;20032;-67
2021/12/03 11:55:46;;;;;;;10.47;4.70;;;;;;;-142.75;100.00;77507.41;5069793;28;20059;-67
2021/12/03 12:04:04;;;;;;;11.03;3.80;;;;;;;-142.75;100.00;77466.03;5069645;28;20398;-64
2021/12/03 13:01:08;;;;;;;12.40;4.60;;;;;;;-142.75;100.00;77446.34;5030276;28;20180;-65
2021/12/03 13:21:58;;;;;;;7.90;4.20;;;;;;;-142.75;100.00;77422.72;5067353;28;20039;-66
2021/12/03 13:44:12;;;;;;;9.60;4.43;;;;;;;-142.75;100.00;77405.00;5067260;28;20861;-66
2021/12/03 14:34:13;;;;;;;11.00;5.83;;;;;;;-142.75;100.00;77389.25;5071692;28;20147;-65
2021/12/03 14:43:10;;;;;;;13.40;7.30;;;;;;;-142.75;100.00;77385.31;5071163;28;20040;-65
2021/12/03 14:53:41;;;;;;;9.03;7.10;;;;;;;-142.75;100.00;77363.66;5070922;28;20032;-64
2021/12/03 14:56:11;;;;;;;11.80;7.97;;;;;;;-142.75;100.00;77351.84;5069743;28;20600;-64
2021/12/03 15:04:07;;;;;;;12.50;8.17;;;;;;;-142.75;100.00;77357.75;5070604;28;20060;-64
2021/12/03 15:06:38;;;;;;;12.23;8.77;;;;;;;-142.75;100.00;77351.84;5070717;28;20024;-64
2021/12/03 15:14:52;;;;;;;11.40;8.53;;;;;;;-142.75;100.00;77349.88;5070954;28;20063;-66
2021/12/03 15:20:08;;;;;;;11.60;8.87;;;;;;;-142.75;100.00;77355.78;5007166;28;20030;-69
2021/12/03 15:25:30;;;;;;;12.70;9.40;;;;;;;-142.75;100.00;77361.69;5008443;28;20041;-67
2021/12/03 15:33:27;;;;;;;12.57;9.40;;;;;;;-142.75;100.00;77353.81;5005895;28;20033;-67
2021/12/03 15:35:57;;;;;;;16.63;9.97;;;;;;;-142.75;100.00;77357.75;5007433;28;20105;-65
2021/12/03 15:38:42;;;;;;;14.90;10.57;;;;;;;-142.75;100.00;77359.72;5006857;28;20022;-66
2021/12/03 15:57:03;;;;;;;17.27;11.53;;;;;;;-142.75;100.00;77318.38;4988610;28;20042;-67
2021/12/03 16:13:01;;;;;;;15.97;11.93;;;;;;;-142.75;100.00;77286.88;4987499;28;20623;-67
2021/12/03 16:50:50;;;;;;;17.63;13.13;;;;;;;-142.75;100.00;77251.44;4991043;28;20034;-66